Time;durP1;ratioP1;P1;durP2;ratioP2;P2;SDS_P1;SDS_P2;PMS_P1;PMS_P2;Temp;Humidity;BMP_temperature;BMP_pressure;BME280_temperature;BME280_humidity;BME280_pressure;Samples;Min_cycle;Max_cycle;Signal;HPM_P1;HPM_P2
2022/05/02 00:00:41;;;;;;;70.82;52.28;;;17.20;57.50;;;;;;4926999;28;95415;-66
2022/05/02 00:03:07;;;;;;;72.10;52.33;;;17.20;57.50;;;;;;4927543;28;97305;-66
2022/05/02 00:05:32;;;;;;;70.13;52.25;;;17.20;57.50;;;;;;4927104;28;94726;-66
2022/05/02 00:07:58;;;;;;;69.57;52.08;;;17.20;57.50;;;;;;4926291;28;101268;-66
2022/05/02 00:10:24;;;;;;;70.35;52.65;;;17.20;57.60;;;;;;4935781;28;95685;-66
2022/05/02 00:12:49;;;;;;;69.78;52.10;;;17.20;57.50;;;;;;4932420;28;95941;-66
2022/05/02 00:15:15;;;;;;;70.32;51.97;;;17.20;57.60;;;;;;4930349;28;95072;-66
2022/05/02 00:17:56;;;;;;;70.15;52.13;;;17.10;57.50;;;;;;4934436;28;96788;-66
2022/05/02 00:20:23;;;;;;;70.57;52.33;;;17.10;57.60;;;;;;4919501;28;96419;-66
2022/05/02 00:22:48;;;;;;;69.30;52.25;;;17.10;57.60;;;;;;4930860;28;96018;-66
2022/05/02 00:25:15;;;;;;;70.22;52.50;;;17.20;57.50;;;;;;4931847;28;95116;-66
2022/05/02 00:27:42;;;;;;;70.07;52.40;;;17.20;57.60;;;;;;4931469;28;95852;-66
2022/05/02 00:30:09;;;;;;;70.18;52.30;;;17.20;57.70;;;;;;4928356;28;96416;-66
2022/05/02 00:32:35;;;;;;;69.65;52.00;;;17.10;57.70;;;;;;4931542;28;95987;-66
2022/05/02 00:35:01;;;;;;;69.97;52.35;;;17.10;57.70;;;;;;4926207;28;95904;-66
2022/05/02 00:37:27;;;;;;;70.90;52.67;;;17.10;57.60;;;;;;4924412;28;98654;-66
2022/05/02 00:39:52;;;;;;;70.13;52.30;;;17.10;57.70;;;;;;4927350;28;94943;-66
2022/05/02 00:42:20;;;;;;;71.25;52.17;;;17.10;57.70;;;;;;4930379;28;101854;-66
2022/05/02 00:44:46;;;;;;;69.85;52.30;;;17.10;57.70;;;;;;4932403;28;95434;-66
2022/05/02 00:47:15;;;;;;;69.82;52.13;;;17.10;57.70;;;;;;4930280;28;94991;-66
2022/05/02 00:49:41;;;;;;;69.30;52.10;;;17.10;57.60;;;;;;4930194;28;95113;-66
2022/05/02 00:52:07;;;;;;;71.88;52.55;;;17.10;57.70;;;;;;4929413;28;95221;-67
2022/05/02 00:54:35;;;;;;;69.90;52.17;;;17.10;57.70;;;;;;4929196;28;93996;-66
2022/05/02 00:57:01;;;;;;;69.57;52.00;;;17.10;57.70;;;;;;4929133;28;97900;-66
2022/05/02 00:59:28;;;;;;;71.43;52.95;;;17.10;57.80;;;;;;4927394;28;95153;-66
2022/05/02 01:01:54;;;;;;;69.78;52.10;;;17.00;57.70;;;;;;4933922;28;97696;-65
2022/05/02 01:04:20;;;;;;;71.97;52.50;;;17.00;57.70;;;;;;4935371;28;96827;-66
2022/05/02 01:09:32;;;;;;;71.78;52.45;;;17.10;57.80;;;;;;4928675;28;95449;-66
2022/05/02 01:11:58;;;;;;;70.00;52.35;;;17.00;57.70;;;;;;4937103;28;94998;-66
2022/05/02 01:14:23;;;;;;;70.55;53.15;;;17.00;57.80;;;;;;4928774;28;95021;-67
2022/05/02 01:16:49;;;;;;;70.75;53.30;;;17.00;57.80;;;;;;4935196;28;97143;-66
2022/05/02 01:19:15;;;;;;;71.38;52.63;;;17.00;57.70;;;;;;4931704;28;95653;-67
2022/05/02 01:21:44;;;;;;;70.53;52.55;;;17.00;57.70;;;;;;4930403;28;98978;-66
2022/05/02 01:24:09;;;;;;;70.47;52.63;;;17.00;57.70;;;;;;4929879;28;96379;-66
2022/05/02 01:26:37;;;;;;;71.25;53.47;;;17.00;57.80;;;;;;4937768;28;95660;-66
2022/05/02 01:29:03;;;;;;;70.68;53.00;;;16.90;57.70;;;;;;4931034;28;96723;-66
2022/05/02 01:31:29;;;;;;;70.47;52.35;;;17.00;57.80;;;;;;4930371;28;97652;-66
2022/05/02 01:33:55;;;;;;;70.65;52.47;;;16.90;57.80;;;;;;4931737;28;96301;-66
2022/05/02 01:36:23;;;;;;;71.28;53.42;;;16.90;57.90;;;;;;4919754;28;96910;-68
2022/05/02 01:38:50;;;;;;;69.85;52.10;;;16.90;57.80;;;;;;4932634;28;95716;-67
2022/05/02 01:41:16;;;;;;;70.00;52.78;;;16.90;57.90;;;;;;4930687;28;95834;-68
2022/05/02 01:43:43;;;;;;;71.18;53.03;;;16.90;57.80;;;;;;4932448;28;94544;-66
2022/05/02 01:46:10;;;;;;;69.38;52.35;;;16.90;57.90;;;;;;4933076;28;96816;-66
2022/05/02 01:48:35;;;;;;;70.00;53.00;;;16.90;57.80;;;;;;4933392;28;95097;-66
2022/05/02 01:51:01;;;;;;;73.18;55.05;;;16.90;57.80;;;;;;4926920;28;95870;-66
2022/05/02 01:53:27;;;;;;;70.85;53.40;;;16.90;57.80;;;;;;4931407;28;95664;-66
2022/05/02 01:55:53;;;;;;;69.78;52.78;;;16.90;58.00;;;;;;4933665;28;101829;-66
2022/05/02 01:58:19;;;;;;;69.97;52.42;;;16.80;57.90;;;;;;4928765;28;96818;-66
2022/05/02 02:00:45;;;;;;;72.05;52.60;;;16.90;57.90;;;;;;4934142;28;94944;-66
2022/05/02 02:03:11;;;;;;;71.38;53.55;;;16.80;57.90;;;;;;4932462;28;95090;-66
2022/05/02 02:05:49;;;;;;;70.60;53.10;;;16.80;57.90;;;;;;4926293;28;95221;-66
2022/05/02 02:08:29;;;;;;;70.53;52.85;;;16.80;58.10;;;;;;4925347;28;97585;-66
2022/05/02 02:11:01;;;;;;;71.57;53.63;;;16.80;57.90;;;;;;4929620;28;95749;-66
2022/05/02 02:13:27;;;;;;;72.53;53.67;;;16.80;57.90;;;;;;4929748;28;95167;-66
2022/05/02 02:15:53;;;;;;;70.28;52.80;;;16.80;58.00;;;;;;4926984;28;96269;-66
2022/05/02 02:18:19;;;;;;;71.53;53.55;;;16.80;58.10;;;;;;4928441;28;95961;-66
2022/05/02 02:20:48;;;;;;;71.47;53.42;;;16.80;58.00;;;;;;4925138;28;97298;-66
2022/05/02 02:23:15;;;;;;;71.30;53.03;;;16.80;58.10;;;;;;4928816;28;94871;-66
2022/05/02 02:25:41;;;;;;;72.28;54.33;;;16.80;58.10;;;;;;4930443;28;95114;-66
2022/05/02 02:28:07;;;;;;;71.00;53.22;;;16.70;58.00;;;;;;4932128;28;96153;-66
2022/05/02 02:30:33;;;;;;;71.15;53.03;;;16.70;58.00;;;;;;4926775;28;95523;-67
2022/05/02 02:33:00;;;;;;;70.30;53.13;;;16.70;58.00;;;;;;4921393;28;95739;-66
2022/05/02 02:35:27;;;;;;;70.00;53.20;;;16.70;58.00;;;;;;4925271;28;96960;-66
2022/05/02 02:37:53;;;;;;;71.40;53.17;;;16.70;58.00;;;;;;4923915;28;96369;-66
2022/05/02 02:40:18;;;;;;;71.32;53.65;;;16.70;58.00;;;;;;4920756;28;98397;-66
2022/05/02 02:42:45;;;;;;;70.60;53.22;;;16.70;58.10;;;;;;4930260;28;96879;-66
2022/05/02 02:45:11;;;;;;;71.88;53.42;;;16.70;58.10;;;;;;4925989;28;96116;-68
2022/05/02 02:47:37;;;;;;;71.68;54.63;;;16.70;58.00;;;;;;4924848;28;95278;-66
2022/05/02 02:50:03;;;;;;;70.70;53.33;;;16.60;58.10;;;;;;4926590;28;95069;-66
2022/05/02 02:52:29;;;;;;;71.40;54.05;;;16.70;58.20;;;;;;4923811;28;96221;-66
2022/05/02 02:54:55;;;;;;;71.63;53.97;;;16.60;58.10;;;;;;4930104;28;96247;-67
2022/05/02 02:57:21;;;;;;;71.75;53.50;;;16.60;58.10;;;;;;4939216;28;94960;-66
2022/05/02 02:59:46;;;;;;;71.38;54.35;;;16.60;58.10;;;;;;4930395;28;95491;-66
2022/05/02 03:02:13;;;;;;;72.00;54.20;;;16.60;58.10;;;;;;4927696;28;98313;-66
2022/05/02 03:07:26;;;;;;;70.20;53.40;;;16.60;58.00;;;;;;4925320;28;102055;-66
2022/05/02 03:09:52;;;;;;;70.75;53.38;;;16.60;58.70;;;;;;4917698;28;100763;-66
2022/05/02 03:12:18;;;;;;;71.53;53.53;;;16.60;58.00;;;;;;4918628;28;97445;-66
2022/05/02 03:14:44;;;;;;;71.45;54.38;;;16.60;58.00;;;;;;4929347;28;95848;-66
2022/05/02 03:17:09;;;;;;;70.65;53.70;;;16.60;58.00;;;;;;4931745;28;95391;-66
2022/05/02 03:19:35;;;;;;;71.43;54.22;;;16.60;58.10;;;;;;4927204;28;95061;-66
2022/05/02 03:22:01;;;;;;;71.15;53.30;;;16.60;58.10;;;;;;4922768;28;94026;-66
2022/05/02 03:24:26;;;;;;;73.07;54.58;;;16.60;58.00;;;;;;4926355;28;97074;-66
2022/05/02 03:26:52;;;;;;;71.72;53.45;;;16.60;58.00;;;;;;4926259;28;97027;-66
2022/05/02 03:29:18;;;;;;;71.75;54.47;;;16.60;58.00;;;;;;4932482;28;96090;-67
2022/05/02 03:31:43;;;;;;;70.63;53.40;;;16.60;58.10;;;;;;4923302;28;100832;-66
2022/05/02 03:34:09;;;;;;;70.45;53.63;;;16.60;58.00;;;;;;4932063;28;96307;-66
2022/05/02 03:36:37;;;;;;;71.43;53.70;;;16.60;58.10;;;;;;4926102;28;94958;-66
2022/05/02 03:39:03;;;;;;;71.32;53.38;;;16.60;58.10;;;;;;4928517;28;95043;-66
2022/05/02 03:41:29;;;;;;;70.43;53.25;;;16.60;58.00;;;;;;4929048;28;95529;-66
2022/05/02 03:43:55;;;;;;;71.50;53.85;;;16.50;58.00;;;;;;4924861;28;95864;-66
2022/05/02 03:46:21;;;;;;;72.18;54.30;;;16.50;58.00;;;;;;4934227;28;95563;-66
2022/05/02 03:48:47;;;;;;;71.65;54.33;;;16.50;58.00;;;;;;4928496;28;100363;-67
2022/05/02 03:51:12;;;;;;;72.78;54.42;;;16.50;57.90;;;;;;4924257;28;94755;-66
2022/05/02 03:53:38;;;;;;;70.38;53.80;;;16.50;58.00;;;;;;4922387;28;99088;-66
2022/05/02 03:56:04;;;;;;;71.18;53.92;;;16.50;58.10;;;;;;4931405;28;101322;-66
2022/05/02 03:58:30;;;;;;;70.68;53.65;;;16.50;58.00;;;;;;4924724;28;94974;-66
2022/05/02 04:00:56;;;;;;;71.38;53.55;;;16.50;58.00;;;;;;4926937;28;95326;-67
2022/05/02 04:03:22;;;;;;;72.45;54.60;;;16.50;58.10;;;;;;4926585;28;96775;-66
2022/05/02 04:05:48;;;;;;;71.43;53.70;;;16.50;58.00;;;;;;4932509;28;95330;-66
2022/05/02 04:08:13;;;;;;;71.13;53.55;;;16.50;58.20;;;;;;4936438;28;95031;-66
2022/05/02 04:10:39;;;;;;;73.05;55.30;;;16.50;58.10;;;;;;4934671;28;93928;-66
2022/05/02 04:13:05;;;;;;;71.78;54.33;;;16.50;58.10;;;;;;4935195;28;96896;-66
2022/05/02 04:15:30;;;;;;;72.65;54.67;;;16.40;58.20;;;;;;4924088;28;96859;-66
2022/05/02 04:17:58;;;;;;;74.25;55.60;;;16.50;58.10;;;;;;4930647;28;96076;-66
2022/05/02 04:20:24;;;;;;;71.40;53.80;;;16.40;57.70;;;;;;4926238;28;96002;-66
2022/05/02 04:22:50;;;;;;;71.47;54.03;;;16.40;58.30;;;;;;4934824;28;95746;-66
2022/05/02 04:25:16;;;;;;;72.95;54.45;;;16.40;58.20;;;;;;4928795;28;94694;-66
2022/05/02 04:27:41;;;;;;;73.43;54.75;;;16.40;58.30;;;;;;4931415;28;95011;-67
2022/05/02 04:30:08;;;;;;;70.90;53.67;;;16.40;58.20;;;;;;4929480;28;95179;-66
2022/05/02 04:32:34;;;;;;;71.18;53.83;;;16.40;58.20;;;;;;4928322;28;97143;-66
2022/05/02 04:34:59;;;;;;;74.13;54.70;;;16.40;58.20;;;;;;4932797;28;94669;-66
2022/05/02 04:37:25;;;;;;;71.22;54.00;;;16.40;58.20;;;;;;4927949;28;94795;-66
2022/05/02 04:39:52;;;;;;;71.40;54.03;;;16.40;58.30;;;;;;4924843;28;98915;-66
2022/05/02 04:42:18;;;;;;;71.78;54.20;;;16.40;58.20;;;;;;4925677;28;97285;-66
2022/05/02 04:44:43;;;;;;;70.95;53.78;;;16.40;58.30;;;;;;4933761;28;95878;-66
2022/05/02 04:47:09;;;;;;;70.75;53.70;;;16.40;58.30;;;;;;4937470;28;95208;-66
2022/05/02 04:49:35;;;;;;;72.05;54.17;;;16.40;58.30;;;;;;4934357;28;95053;-66
2022/05/02 04:52:00;;;;;;;70.13;53.03;;;16.40;58.30;;;;;;4920449;28;95724;-65
2022/05/02 04:54:26;;;;;;;71.07;52.97;;;16.30;58.40;;;;;;4924141;28;96018;-65
2022/05/02 04:56:52;;;;;;;70.00;53.08;;;16.30;58.60;;;;;;4926782;28;95403;-65
2022/05/02 04:59:17;;;;;;;70.13;52.63;;;16.40;58.80;;;;;;4934133;28;94070;-65
2022/05/02 05:01:43;;;;;;;69.80;52.95;;;16.30;59.20;;;;;;4922954;28;98138;-62
2022/05/02 05:04:09;;;;;;;71.53;53.35;;;16.40;58.80;;;;;;4923146;28;94895;-65
2022/05/02 05:06:35;;;;;;;69.93;52.42;;;16.40;58.70;;;;;;4935103;28;95941;-66
2022/05/02 05:09:01;;;;;;;70.07;53.08;;;16.40;58.70;;;;;;4936577;28;94934;-64
2022/05/02 05:11:39;;;;;;;70.82;52.78;;;16.30;58.90;;;;;;4934380;28;95152;-65
2022/05/02 05:17:24;;;;;;;73.25;53.40;;;16.30;59.10;;;;;;4935539;28;95658;-66
2022/05/02 05:20:13;;;;;;;71.97;52.95;;;16.40;59.10;;;;;;4934289;28;95036;-66
2022/05/02 05:23:11;;;;;;;71.03;53.20;;;16.30;59.10;;;;;;4925566;28;95630;-66
2022/05/02 05:26:07;;;;;;;72.20;53.80;;;16.30;59.10;;;;;;4934642;28;95390;-67
2022/05/02 05:28:57;;;;;;;71.53;53.20;;;16.30;58.90;;;;;;4934382;28;94994;-66
2022/05/02 05:31:40;;;;;;;71.22;53.53;;;16.30;58.90;;;;;;4935117;28;94979;-67
2022/05/02 05:34:25;;;;;;;72.72;53.78;;;16.30;58.80;;;;;;4933460;28;96015;-67
2022/05/02 05:37:26;;;;;;;70.90;52.97;;;16.30;58.70;;;;;;4921460;28;98518;-66
2022/05/02 05:40:13;;;;;;;74.18;54.45;;;16.30;59.00;;;;;;4923616;28;95399;-66
2022/05/02 05:42:58;;;;;;;74.47;55.13;;;16.30;58.70;;;;;;4936239;28;95113;-67
2022/05/02 05:45:46;;;;;;;72.55;54.42;;;16.30;58.60;;;;;;4938131;28;96305;-67
2022/05/02 05:48:26;;;;;;;76.47;55.65;;;16.30;58.60;;;;;;4932015;28;96083;-67
2022/05/02 05:51:14;;;;;;;75.65;55.15;;;16.30;58.60;;;;;;4933124;28;96168;-67
2022/05/02 05:54:05;;;;;;;75.70;55.45;;;16.30;58.60;;;;;;4926202;28;94163;-66
2022/05/02 05:56:45;;;;;;;73.03;55.25;;;16.30;58.40;;;;;;4934495;28;95594;-67
2022/05/02 05:59:38;;;;;;;74.07;54.25;;;16.30;58.40;;;;;;4938473;28;95828;-67
2022/05/02 06:02:23;;;;;;;72.80;54.97;;;16.30;58.50;;;;;;4925513;28;95750;-66
2022/05/02 06:04:50;;;;;;;73.85;54.50;;;16.30;58.40;;;;;;4921243;28;95267;-66
2022/05/02 06:07:21;;;;;;;74.45;54.88;;;16.30;58.30;;;;;;4933959;28;94959;-68
2022/05/02 06:09:49;;;;;;;73.35;54.80;;;16.30;58.30;;;;;;4928458;28;95339;-67
2022/05/02 06:12:15;;;;;;;73.13;54.80;;;16.30;58.20;;;;;;4934743;28;94849;-67
2022/05/02 06:20:20;;;;;;;71.35;53.85;;;16.40;58.30;;;;;;4929227;28;94378;-67
2022/05/02 06:22:47;;;;;;;73.68;54.03;;;16.40;58.30;;;;;;4927576;28;95854;-66
2022/05/02 06:25:14;;;;;;;74.32;54.53;;;16.30;58.20;;;;;;4922353;28;96891;-66
2022/05/02 06:27:42;;;;;;;73.05;53.85;;;16.40;58.20;;;;;;4932315;28;98306;-67
2022/05/02 06:30:10;;;;;;;72.22;53.60;;;16.40;58.20;;;;;;4937088;28;97569;-66
2022/05/02 06:32:42;;;;;;;73.93;54.45;;;16.40;58.90;;;;;;4932876;28;94603;-67
2022/05/02 06:35:08;;;;;;;73.07;53.60;;;16.40;58.00;;;;;;4932498;28;94731;-67
2022/05/02 06:37:43;;;;;;;72.95;53.92;;;16.40;58.10;;;;;;4927948;28;95399;-67
2022/05/02 06:40:19;;;;;;;75.88;54.42;;;16.40;58.10;;;;;;4935342;28;95412;-68
2022/05/02 06:42:55;;;;;;;75.30;53.92;;;16.50;57.90;;;;;;4933377;28;94992;-67
2022/05/02 06:45:47;;;;;;;73.47;53.83;;;16.40;57.90;;;;;;4935772;28;93998;-67
2022/05/02 06:48:36;;;;;;;73.82;54.50;;;16.50;57.90;;;;;;4921504;28;95905;-67
2022/05/02 06:51:07;;;;;;;73.70;54.30;;;16.50;57.90;;;;;;4925730;28;94989;-67
2022/05/02 06:53:36;;;;;;;;;;;16.50;57.80;;;;;;4930561;28;96085;-67
2022/05/02 06:56:08;;;;;;;71.50;53.78;;;16.50;57.60;;;;;;4934150;28;95079;-67
2022/05/02 06:58:52;;;;;;;72.45;54.03;;;16.50;57.80;;;;;;4926729;28;96015;-67
2022/05/02 07:01:50;;;;;;;71.45;53.72;;;16.50;57.70;;;;;;4926547;28;97942;-67
2022/05/02 07:04:24;;;;;;;72.18;53.97;;;16.50;57.60;;;;;;4925475;28;99294;-67
2022/05/02 07:07:18;;;;;;;72.55;53.75;;;16.60;57.70;;;;;;4928802;28;97895;-67
2022/05/02 07:09:46;;;;;;;71.90;53.42;;;16.50;57.60;;;;;;4921189;28;95460;-67
2022/05/02 07:12:25;;;;;;;76.40;55.50;;;16.50;57.50;;;;;;4937163;28;96406;-67
2022/05/02 07:15:15;;;;;;;73.57;53.92;;;16.60;57.50;;;;;;4884769;28;1176001;-68
2022/05/02 07:17:44;;;;;;;72.97;53.17;;;16.60;57.40;;;;;;4931353;28;95055;-69
2022/05/02 07:20:27;;;;;;;73.68;53.70;;;16.60;57.50;;;;;;4927166;28;96126;-67
2022/05/02 07:23:05;;;;;;;72.47;53.30;;;16.60;57.40;;;;;;4924088;28;95845;-67
2022/05/02 07:25:35;;;;;;;73.72;55.20;;;16.60;57.30;;;;;;4933627;28;95013;-67
2022/05/02 07:28:29;;;;;;;73.00;53.63;;;16.60;57.00;;;;;;4931400;28;94993;-67
2022/05/02 07:30:58;;;;;;;70.53;53.38;;;16.70;57.30;;;;;;4932814;28;95933;-67
2022/05/02 07:33:38;;;;;;;72.47;53.42;;;16.70;57.40;;;;;;4923946;28;96736;-66
2022/05/02 07:36:04;;;;;;;72.95;53.55;;;16.70;57.30;;;;;;4923830;28;97139;-67
2022/05/02 07:38:35;;;;;;;71.05;53.17;;;16.70;57.10;;;;;;4931730;28;94192;-67
2022/05/02 07:41:22;;;;;;;72.23;52.93;;;16.70;57.30;;;;;;4930755;28;95120;-67
2022/05/02 07:43:56;;;;;;;72.75;53.92;;;16.80;57.00;;;;;;4928498;28;95226;-67
2022/05/02 07:46:41;;;;;;;73.25;54.75;;;16.80;56.90;;;;;;4932542;28;96924;-67
2022/05/02 07:49:09;;;;;;;74.53;55.35;;;16.80;56.70;;;;;;4928231;28;95110;-68
2022/05/02 07:51:49;;;;;;;74.75;55.50;;;16.80;56.60;;;;;;4922227;28;95724;-67
2022/05/02 07:54:18;;;;;;;73.43;53.42;;;16.90;56.80;;;;;;4928259;28;94827;-67
2022/05/02 07:56:47;;;;;;;73.93;53.95;;;16.90;56.70;;;;;;4931451;28;95475;-67
2022/05/02 07:59:15;;;;;;;72.82;53.45;;;16.90;56.50;;;;;;4924927;28;98516;-68
2022/05/02 08:01:42;;;;;;;72.75;53.50;;;16.90;56.50;;;;;;4924818;28;100027;-67
2022/05/02 08:04:12;;;;;;;71.45;52.97;;;16.90;56.80;;;;;;4924175;28;95182;-68
2022/05/02 08:06:43;;;;;;;72.07;52.97;;;16.90;56.80;;;;;;4925326;28;95679;-68
2022/05/02 08:09:12;;;;;;;;;;;17.00;56.80;;;;;;4925173;28;95107;-67
2022/05/02 08:11:58;;;;;;;71.63;53.15;;;17.00;56.70;;;;;;4931301;28;97177;-67
2022/05/02 08:14:53;;;;;;;72.43;53.30;;;17.00;56.50;;;;;;4929217;28;96504;-67
2022/05/02 08:17:52;;;;;;;74.45;53.47;;;17.00;56.50;;;;;;4922162;28;94998;-67
2022/05/02 08:20:18;;;;;;;72.28;53.47;;;17.00;56.40;;;;;;4922929;28;95425;-67
2022/05/02 08:28:41;;;;;;;73.15;53.30;;;17.10;56.60;;;;;;4929062;28;94754;-67
2022/05/02 08:31:24;;;;;;;72.47;53.35;;;17.10;56.50;;;;;;4923153;28;93878;-67
2022/05/02 08:33:59;;;;;;;72.97;53.72;;;17.10;56.40;;;;;;4925989;28;96073;-67
2022/05/02 08:36:38;;;;;;;71.22;52.80;;;17.10;56.30;;;;;;4927598;28;95227;-67
2022/05/02 08:39:05;;;;;;;72.57;53.08;;;17.10;56.70;;;;;;4933822;28;96053;-67
2022/05/02 08:41:32;;;;;;;74.55;53.03;;;17.10;56.30;;;;;;4935561;28;97968;-67
2022/05/02 08:44:17;;;;;;;73.85;53.13;;;17.10;56.30;;;;;;4940536;28;95326;-67
2022/05/02 08:47:07;;;;;;;72.13;52.63;;;17.10;56.40;;;;;;4934769;28;96655;-67
2022/05/02 08:49:38;;;;;;;72.30;52.58;;;17.20;56.60;;;;;;4933999;28;95405;-68
2022/05/02 08:52:34;;;;;;;71.22;52.88;;;17.20;56.20;;;;;;4937811;28;94747;-67
2022/05/02 08:55:21;;;;;;;71.13;52.47;;;17.20;56.20;;;;;;4932664;28;96580;-67
2022/05/02 08:58:15;;;;;;;71.07;52.78;;;17.20;56.40;;;;;;4927213;28;97274;-67
2022/05/02 09:01:18;;;;;;;73.45;53.30;;;17.20;55.80;;;;;;4916884;28;95141;-67
2022/05/02 09:04:24;;;;;;;72.35;52.90;;;17.20;55.90;;;;;;4938337;28;95311;-67
2022/05/02 09:07:38;;;;;;;74.00;52.58;;;17.30;55.90;;;;;;4925040;28;96590;-67
2022/05/02 09:10:17;;;;;;;71.65;52.17;;;17.30;56.10;;;;;;4930012;28;97596;-67
2022/05/02 09:13:15;;;;;;;71.75;52.72;;;17.30;56.30;;;;;;4936062;28;97845;-67
2022/05/02 09:15:57;;;;;;;71.95;53.00;;;17.30;56.00;;;;;;4925454;28;95352;-67
2022/05/02 09:18:31;;;;;;;;;;;17.30;56.10;;;;;;4932868;28;95246;-67
2022/05/02 09:20:57;;;;;;;70.95;52.83;;;17.30;56.00;;;;;;4931720;28;95775;-68
2022/05/02 09:23:34;;;;;;;72.47;53.00;;;17.40;55.90;;;;;;4923500;28;94969;-68
2022/05/02 09:26:06;;;;;;;73.93;53.10;;;17.40;56.00;;;;;;4932622;28;94043;-67
2022/05/02 09:28:50;;;;;;;;;;;17.40;55.90;;;;;;4934590;28;95567;-67
2022/05/02 09:31:20;;;;;;;70.65;51.92;;;17.40;56.00;;;;;;4940445;28;94932;-67
2022/05/02 09:34:15;;;;;;;73.20;53.17;;;17.40;55.90;;;;;;4931866;28;96108;-67
2022/05/02 09:36:44;;;;;;;72.07;52.70;;;17.40;55.80;;;;;;4920176;28;95867;-67
2022/05/02 09:39:22;;;;;;;70.68;52.22;;;17.40;56.00;;;;;;4919208;28;95473;-67
2022/05/02 09:42:08;;;;;;;71.93;52.55;;;17.40;56.00;;;;;;4935846;28;95997;-67
2022/05/02 09:50:37;;;;;;;71.97;52.65;;;17.50;55.40;;;;;;4933471;28;95868;-67
2022/05/02 09:53:17;;;;;;;;;;;17.50;55.90;;;;;;4931484;28;99607;-68
2022/05/02 09:58:43;;;;;;;71.32;52.50;;;17.50;55.90;;;;;;4927243;28;97146;-68
2022/05/02 10:01:23;;;;;;;72.32;52.72;;;17.50;55.70;;;;;;4931374;28;96273;-68
2022/05/02 10:04:29;;;;;;;71.50;52.47;;;17.50;55.70;;;;;;4930630;28;96565;-68
2022/05/02 10:06:55;;;;;;;72.10;52.58;;;17.60;55.70;;;;;;4933826;28;95544;-67
2022/05/02 10:09:33;;;;;;;70.35;51.65;;;17.60;55.70;;;;;;4927805;28;95203;-68
2022/05/02 10:12:10;;;;;;;72.35;52.03;;;17.60;55.70;;;;;;4922915;28;95118;-68
2022/05/02 10:14:59;;;;;;;71.35;52.55;;;17.60;55.60;;;;;;4930001;28;95736;-68
2022/05/02 10:18:00;;;;;;;71.03;52.05;;;17.60;55.60;;;;;;4933977;28;96606;-68
2022/05/02 10:20:33;;;;;;;;;;;17.60;55.60;;;;;;4928268;28;94012;-67
2022/05/02 10:23:12;;;;;;;70.82;51.90;;;17.60;55.60;;;;;;4929989;28;95617;-67
2022/05/02 10:25:49;;;;;;;71.75;52.20;;;17.60;55.50;;;;;;4931275;28;98207;-67
2022/05/02 10:28:21;;;;;;;71.28;52.03;;;17.60;55.50;;;;;;4926851;28;96107;-68
2022/05/02 10:31:02;;;;;;;71.15;52.17;;;17.70;55.50;;;;;;4933240;28;95153;-68
2022/05/02 10:33:35;;;;;;;71.15;51.83;;;17.70;55.50;;;;;;4926192;28;96578;-68
2022/05/02 10:36:04;;;;;;;70.80;51.55;;;17.70;55.50;;;;;;4929231;28;94720;-68
2022/05/02 10:38:30;;;;;;;71.40;52.13;;;17.70;55.50;;;;;;4930919;28;94968;-67
2022/05/02 10:41:20;;;;;;;73.13;52.25;;;17.70;55.50;;;;;;4923618;28;95084;-68
2022/05/02 10:43:52;;;;;;;72.90;52.90;;;17.70;55.50;;;;;;4935281;28;98159;-68
2022/05/02 10:46:20;;;;;;;73.15;52.65;;;17.70;55.40;;;;;;4925329;28;95458;-68
2022/05/02 10:49:16;;;;;;;72.88;52.85;;;17.70;55.40;;;;;;4930580;28;95808;-68
2022/05/02 10:52:00;;;;;;;72.65;52.40;;;17.80;55.50;;;;;;4915316;28;94877;-68
2022/05/02 10:54:32;;;;;;;72.30;52.28;;;17.70;55.40;;;;;;4928501;28;97834;-68
2022/05/02 10:57:11;;;;;;;72.30;52.15;;;17.80;55.40;;;;;;4932692;28;95165;-68
2022/05/02 10:59:44;;;;;;;71.75;52.13;;;17.80;55.40;;;;;;4929268;28;95427;-67
2022/05/02 11:02:38;;;;;;;72.50;52.38;;;17.80;55.40;;;;;;4936814;28;94653;-68
2022/05/02 11:05:08;;;;;;;72.75;52.10;;;17.80;55.40;;;;;;4934126;28;95077;-68
2022/05/02 11:07:45;;;;;;;74.47;52.38;;;17.80;55.40;;;;;;4927196;28;97431;-68
2022/05/02 11:10:13;;;;;;;72.60;53.28;;;17.80;55.40;;;;;;4923793;28;95131;-68
2022/05/02 11:13:05;;;;;;;72.22;52.78;;;17.80;55.40;;;;;;4935765;28;94018;-68
2022/05/02 11:15:51;;;;;;;72.35;52.60;;;17.80;55.40;;;;;;4925687;28;96721;-67
2022/05/02 11:21:18;;;;;;;73.30;52.53;;;17.90;55.30;;;;;;4916883;28;100302;-67
2022/05/02 11:24:09;;;;;;;72.20;52.50;;;17.90;55.30;;;;;;4935055;28;95107;-67
2022/05/02 11:26:55;;;;;;;73.20;52.88;;;17.90;55.30;;;;;;4934843;28;94708;-68
2022/05/02 11:29:21;;;;;;;74.38;53.53;;;17.90;55.30;;;;;;4927597;28;95108;-67
2022/05/02 11:32:05;;;;;;;71.60;51.95;;;17.90;55.30;;;;;;4921841;28;95478;-67
2022/05/02 11:35:01;;;;;;;73.82;53.03;;;17.90;55.30;;;;;;4929593;28;95181;-68
2022/05/02 11:37:42;;;;;;;72.90;53.25;;;17.90;55.20;;;;;;4927839;28;95038;-67
2022/05/02 11:40:12;;;;;;;72.15;52.40;;;17.90;55.30;;;;;;4924940;28;95713;-68
2022/05/02 11:42:49;;;;;;;74.75;53.15;;;17.90;55.20;;;;;;4928787;28;95175;-67
2022/05/02 11:45:17;;;;;;;74.30;53.40;;;18.00;55.30;;;;;;4924588;28;94938;-67
2022/05/02 11:47:53;;;;;;;72.68;52.80;;;17.90;55.80;;;;;;4927433;28;96515;-68
2022/05/02 11:50:22;;;;;;;74.88;54.30;;;18.00;55.20;;;;;;4931245;28;96030;-68
2022/05/02 11:52:52;;;;;;;72.25;52.30;;;18.00;55.20;;;;;;4931162;28;95468;-68
2022/05/02 11:55:22;;;;;;;74.95;54.83;;;18.00;55.20;;;;;;4926207;28;94704;-68
2022/05/02 11:57:55;;;;;;;71.95;52.00;;;18.00;55.20;;;;;;4933672;28;95611;-68
2022/05/02 12:00:26;;;;;;;73.50;53.70;;;18.00;55.20;;;;;;4929995;28;95063;-68
2022/05/02 12:03:12;;;;;;;72.50;52.05;;;18.00;55.20;;;;;;4932344;28;94690;-68
2022/05/02 12:05:55;;;;;;;72.47;52.15;;;18.00;55.20;;;;;;4926458;28;94370;-68
2022/05/02 12:08:34;;;;;;;73.25;52.75;;;18.00;55.10;;;;;;4931192;28;95181;-68
2022/05/02 12:11:14;;;;;;;72.70;52.58;;;18.00;55.10;;;;;;4933502;28;95066;-68
2022/05/02 12:13:45;;;;;;;74.38;52.95;;;18.10;55.20;;;;;;4929492;28;96496;-68
2022/05/02 12:16:15;;;;;;;73.10;53.03;;;18.10;55.20;;;;;;4931224;28;95208;-68
2022/05/02 12:18:41;;;;;;;72.07;52.03;;;18.10;55.10;;;;;;4933412;28;95808;-67
2022/05/02 12:21:08;;;;;;;72.05;51.95;;;18.10;55.10;;;;;;4926867;28;96460;-68
2022/05/02 12:23:37;;;;;;;73.95;52.95;;;18.10;55.10;;;;;;4918429;28;95503;-68
2022/05/02 12:26:12;;;;;;;72.82;51.88;;;18.10;55.10;;;;;;4918481;28;95420;-67
2022/05/02 12:28:43;;;;;;;72.35;52.20;;;18.10;55.10;;;;;;4933353;28;95689;-68
2022/05/02 12:31:15;;;;;;;73.57;52.30;;;18.10;55.10;;;;;;4931506;28;94614;-68
2022/05/02 12:33:43;;;;;;;74.65;53.65;;;18.10;55.10;;;;;;4918711;28;95275;-68
2022/05/02 12:36:19;;;;;;;73.00;53.00;;;18.10;55.10;;;;;;4925733;28;95322;-68
2022/05/02 12:39:04;;;;;;;74.68;52.92;;;18.20;55.10;;;;;;4930090;28;99084;-68
2022/05/02 12:41:43;;;;;;;72.45;52.08;;;18.20;55.10;;;;;;4928127;28;96390;-68
2022/05/02 12:44:11;;;;;;;74.22;53.33;;;18.20;55.00;;;;;;4929602;28;95045;-68
2022/05/02 12:46:39;;;;;;;74.25;52.53;;;18.20;55.10;;;;;;4934039;28;97014;-68
2022/05/02 12:49:06;;;;;;;72.65;51.83;;;18.20;55.00;;;;;;4932349;28;95563;-68
2022/05/02 12:51:32;;;;;;;77.43;53.58;;;18.20;55.00;;;;;;4924866;28;97359;-68
2022/05/02 12:54:27;;;;;;;72.40;51.97;;;18.20;55.30;;;;;;4932124;28;96045;-70
2022/05/02 13:02:44;;;;;;;73.40;52.65;;;18.20;54.90;;;;;;4929734;28;97559;-68
2022/05/02 13:05:18;;;;;;;73.10;52.28;;;18.20;54.90;;;;;;4933922;28;95938;-68
2022/05/02 13:07:52;;;;;;;72.07;51.70;;;18.30;55.00;;;;;;4929944;28;96070;-68
2022/05/02 13:10:22;;;;;;;72.65;52.13;;;18.30;54.90;;;;;;4927366;28;98124;-68
2022/05/02 13:13:04;;;;;;;73.10;52.13;;;18.30;54.90;;;;;;4931709;28;95454;-68
2022/05/02 13:15:39;;;;;;;73.30;52.15;;;18.30;54.90;;;;;;4931820;28;94955;-68
2022/05/02 13:18:12;;;;;;;72.90;52.03;;;18.30;54.80;;;;;;4931929;28;95313;-68
2022/05/02 13:20:39;;;;;;;72.57;52.28;;;18.40;54.90;;;;;;4918462;28;95267;-68
2022/05/02 13:23:08;;;;;;;73.22;51.90;;;18.40;54.80;;;;;;4929577;28;97132;-68
2022/05/02 13:26:11;;;;;;;72.65;51.92;;;18.40;54.70;;;;;;4927537;28;96306;-68
2022/05/02 13:28:54;;;;;;;72.57;51.92;;;18.40;54.70;;;;;;4922181;28;95392;-68
2022/05/02 13:31:39;;;;;;;72.95;52.08;;;18.40;54.20;;;;;;4913638;28;98813;-68
2022/05/02 13:34:06;;;;;;;72.82;52.17;;;18.40;54.80;;;;;;4911209;28;97706;-67
2022/05/02 13:36:43;;;;;;;73.15;52.30;;;18.40;54.70;;;;;;4908681;28;95628;-67